Weather at Lotnisko Konopki

Public forecast

Using degrees Celsius for public forecast. Weather courtesy of forecast.io.

Closest aviation weather report (METAR) to Lotnisko Konopki

Closest report is Modlin Airport, 32.8 nm (60.7 km) S.

2024/07/18 17:00 (retrieved 38 minutes ago)

EPMO 181700Z 29007KT 260V340 CAVOK 25/14 Q1021

Closest aviation forecast (TAF) to Lotnisko Konopki

Closest forecast is Modlin Airport, 32.8 nm (60.7 km) S.

2024/07/18 12:00 (retrieved 6 hours ago)

TAF EPMO 181130Z 1812/1912 29010KT CAVOK TEMPO 1822/1905 VRB05KT BECMG 1905/1907 35010KT